createdAt,value
2023-02-27T00:00:22.651Z,102835.66
2023-02-27T00:02:51.450Z,102841.16
2023-02-27T00:05:19.459Z,102839.66
2023-02-27T00:07:45.969Z,102840.41
2023-02-27T00:10:13.760Z,102845.47
2023-02-27T00:12:40.199Z,102837.22
2023-02-27T00:15:13.109Z,102841.84
2023-02-27T00:17:40.036Z,102840.66
2023-02-27T00:20:11.075Z,102842.25
2023-02-27T00:22:38.240Z,102838.41
2023-02-27T00:25:05.790Z,102842.75
2023-02-27T00:27:32.631Z,102844.81
2023-02-27T00:29:59.689Z,102842.91
2023-02-27T00:32:26.176Z,102853.47
2023-02-27T00:34:52.526Z,102851.97
2023-02-27T00:37:18.868Z,102850.22
2023-02-27T00:39:45.456Z,102854.06
2023-02-27T00:42:11.773Z,102846.19
2023-02-27T00:44:38.604Z,102845.00
2023-02-27T00:47:04.949Z,102848.09
2023-02-27T00:49:31.322Z,102844.03
2023-02-27T00:51:57.735Z,102847.75
2023-02-27T00:54:24.192Z,102849.97
2023-02-27T00:56:50.588Z,102847.72
2023-02-27T00:59:16.965Z,102847.28
2023-02-27T01:01:44.447Z,102853.25
2023-02-27T01:04:11.332Z,102849.81
2023-02-27T01:06:37.717Z,102850.97
2023-02-27T01:09:04.752Z,102853.91
2023-02-27T01:11:31.435Z,102850.75
2023-02-27T01:13:57.822Z,102848.53
2023-02-27T01:16:24.412Z,102839.47
2023-02-27T01:18:50.986Z,102847.50
2023-02-27T01:21:17.345Z,102840.47
2023-02-27T01:23:43.695Z,102839.28
2023-02-27T01:26:10.086Z,102842.38
2023-02-27T01:28:36.726Z,102842.22
2023-02-27T01:31:03.086Z,102838.91
2023-02-27T01:33:29.458Z,102835.66
2023-02-27T01:35:55.811Z,102837.75
2023-02-27T01:38:22.178Z,102830.44
2023-02-27T01:40:48.579Z,102834.63
2023-02-27T01:43:18.118Z,102835.78
2023-02-27T01:45:49.370Z,102838.75
2023-02-27T01:48:20.076Z,102835.00
2023-02-27T01:50:56.001Z,102833.78
2023-02-27T01:53:26.045Z,102834.38
2023-02-27T01:56:00.470Z,102829.31
2023-02-27T01:58:27.472Z,102833.03
2023-02-27T02:00:55.181Z,102838.59
2023-02-27T02:03:46.405Z,102841.72
2023-02-27T02:06:13.210Z,102845.06
2023-02-27T02:08:44.110Z,102839.44
2023-02-27T02:11:12.415Z,102844.72
2023-02-27T02:13:41.253Z,102837.69
2023-02-27T02:16:26.049Z,102839.59
2023-02-27T02:19:36.171Z,102843.38
2023-02-27T02:22:37.410Z,102849.94
2023-02-27T02:25:29.575Z,102851.44
2023-02-27T02:28:20.822Z,102857.31
2023-02-27T02:31:14.991Z,102857.72
2023-02-27T02:34:13.313Z,102854.81
2023-02-27T02:37:04.289Z,102855.06
2023-02-27T02:39:55.301Z,102853.44
2023-02-27T02:42:26.035Z,102861.22
2023-02-27T02:44:57.710Z,102864.06
2023-02-27T02:47:52.417Z,102850.00
2023-02-27T02:50:18.744Z,102852.53
2023-02-27T02:53:01.351Z,102858.03
2023-02-27T02:55:37.759Z,102855.81
2023-02-27T02:58:11.904Z,102848.13
2023-02-27T03:00:46.627Z,102853.19
2023-02-27T03:03:26.131Z,102845.94
2023-02-27T03:05:59.777Z,102853.16
2023-02-27T03:08:30.800Z,102850.78
2023-02-27T03:11:01.166Z,102842.53
2023-02-27T03:13:36.612Z,102842.22
2023-02-27T03:16:31.832Z,102854.88
2023-02-27T03:19:16.302Z,102849.53
2023-02-27T03:21:55.884Z,102851.81
2023-02-27T03:24:46.528Z,102856.22
2023-02-27T03:27:14.184Z,102857.97
2023-02-27T03:30:04.581Z,102866.53
2023-02-27T03:32:42.584Z,102860.66
2023-02-27T03:35:10.456Z,102857.03
2023-02-27T03:38:01.190Z,102859.09
2023-02-27T03:40:36.540Z,102862.63
2023-02-27T03:43:30.629Z,102867.84
2023-02-27T03:46:05.785Z,102862.88
2023-02-27T03:48:32.383Z,102871.91
2023-02-27T03:50:58.936Z,102869.13
2023-02-27T03:53:34.831Z,102868.66
2023-02-27T03:56:05.057Z,102876.81
2023-02-27T03:58:31.445Z,102874.94
2023-02-27T04:00:57.842Z,102872.69
2023-02-27T04:03:24.425Z,102882.56
2023-02-27T04:05:50.866Z,102883.13
2023-02-27T04:08:36.258Z,102891.28
2023-02-27T04:11:17.583Z,102893.25
2023-02-27T04:13:52.320Z,102890.56
2023-02-27T04:16:37.526Z,102893.81
2023-02-27T04:19:34.710Z,102891.44
2023-02-27T04:22:54.825Z,102901.47
2023-02-27T04:25:52.133Z,102905.16
2023-02-27T04:28:26.940Z,102920.66
2023-02-27T04:31:22.594Z,102913.72
2023-02-27T04:33:59.974Z,102921.72
2023-02-27T04:36:44.855Z,102923.63
2023-02-27T04:39:28.250Z,102931.69
2023-02-27T04:41:59.736Z,102931.69
2023-02-27T04:44:28.697Z,102931.75
2023-02-27T04:46:58.075Z,102929.81
2023-02-27T04:49:33.479Z,102923.28
2023-02-27T04:52:10.327Z,102925.66
2023-02-27T04:55:05.161Z,102931.59
2023-02-27T04:57:38.175Z,102934.06
2023-02-27T05:00:09.283Z,102930.47
2023-02-27T05:02:39.675Z,102934.06
2023-02-27T05:05:13.223Z,102934.69
2023-02-27T05:07:45.088Z,102932.94
2023-02-27T05:10:24.998Z,102933.88
2023-02-27T05:13:03.391Z,102931.25
2023-02-27T05:15:34.485Z,102933.16
2023-02-27T05:18:08.042Z,102933.53
2023-02-27T05:20:59.495Z,102933.38
2023-02-27T05:23:44.948Z,102938.59
2023-02-27T05:26:37.476Z,102946.34
2023-02-27T05:29:28.714Z,102950.91
2023-02-27T05:32:20.714Z,102949.28
2023-02-27T05:34:54.841Z,102944.97
2023-02-27T05:37:48.104Z,102948.38
2023-02-27T05:40:19.544Z,102952.56
2023-02-27T05:42:56.490Z,102942.66
2023-02-27T05:45:26.867Z,102949.22
2023-02-27T05:48:00.550Z,102950.16
2023-02-27T05:50:30.797Z,102945.81
2023-02-27T05:53:01.904Z,102950.50
2023-02-27T05:55:43.539Z,102944.47
2023-02-27T05:58:24.416Z,102944.72
2023-02-27T06:00:58.986Z,102947.06
2023-02-27T06:03:26.988Z,102947.56
2023-02-27T06:05:54.779Z,102947.91
2023-02-27T06:08:22.141Z,102950.09
2023-02-27T06:10:50.456Z,102956.03
2023-02-27T06:13:17.484Z,102956.59
2023-02-27T06:15:45.345Z,102952.94
2023-02-27T06:18:12.698Z,102950.81
2023-02-27T06:20:39.762Z,102958.63
2023-02-27T06:23:06.618Z,102956.09
2023-02-27T06:25:33.484Z,102965.75
2023-02-27T06:27:59.832Z,102979.56
2023-02-27T06:30:26.684Z,102980.94
2023-02-27T06:32:53.101Z,102981.09
2023-02-27T06:35:19.543Z,102985.84
2023-02-27T06:37:45.908Z,102981.50
2023-02-27T06:40:13.612Z,102980.63
2023-02-27T06:42:44.996Z,102989.31
2023-02-27T06:45:12.648Z,102991.06
2023-02-27T06:47:40.057Z,102981.09
2023-02-27T06:50:11.198Z,102980.00
2023-02-27T06:52:38.535Z,102991.22
2023-02-27T06:55:07.040Z,102993.31
2023-02-27T06:57:33.530Z,102997.88
2023-02-27T06:59:59.900Z,102995.00
2023-02-27T07:02:26.284Z,102989.63
2023-02-27T07:04:53.079Z,102995.94
2023-02-27T07:07:34.215Z,102990.72
2023-02-27T07:10:03.626Z,102992.09
2023-02-27T07:12:29.960Z,103000.81
2023-02-27T07:14:56.319Z,103003.28
2023-02-27T07:17:22.706Z,103002.88
2023-02-27T07:19:49.040Z,103004.94
2023-02-27T07:22:15.404Z,103007.78
2023-02-27T07:24:42.048Z,103008.34
2023-02-27T07:27:08.402Z,103016.44
2023-02-27T07:29:35.958Z,103031.84
2023-02-27T07:32:03.050Z,103030.28
2023-02-27T07:34:29.440Z,103025.44
2023-02-27T07:36:55.792Z,103026.81
2023-02-27T07:39:22.155Z,103029.03
2023-02-27T07:41:48.520Z,103030.75
2023-02-27T07:44:15.308Z,103035.56
2023-02-27T07:46:41.696Z,103031.56
2023-02-27T07:49:08.075Z,103028.97
2023-02-27T07:51:34.466Z,103018.72
2023-02-27T07:54:00.895Z,103022.06
2023-02-27T07:56:27.615Z,103026.28
2023-02-27T07:58:54.279Z,103032.91
2023-02-27T08:01:20.645Z,103033.56
2023-02-27T08:03:47.055Z,103034.50
2023-02-27T08:06:14.032Z,103032.03
2023-02-27T08:08:40.357Z,103023.59
2023-02-27T08:11:06.728Z,103030.81
2023-02-27T08:13:59.969Z,103030.47
2023-02-27T08:16:19.524Z,103020.72
2023-02-27T08:18:45.973Z,103025.69
2023-02-27T08:21:12.365Z,103022.06
2023-02-27T08:23:38.696Z,103024.47
2023-02-27T08:26:05.388Z,103015.66
2023-02-27T08:28:31.728Z,103017.34
2023-02-27T08:30:58.081Z,103015.09
2023-02-27T08:33:25.030Z,103009.69
2023-02-27T08:35:52.023Z,103011.75
2023-02-27T08:38:18.451Z,103015.28
2023-02-27T08:40:44.898Z,103009.97
2023-02-27T08:43:11.229Z,103014.47
2023-02-27T08:45:37.698Z,103010.75
2023-02-27T08:48:04.198Z,103006.56
2023-02-27T08:50:30.604Z,103014.22
2023-02-27T08:52:56.927Z,103016.16
2023-02-27T08:55:23.277Z,103024.59
2023-02-27T08:57:49.612Z,103034.63
2023-02-27T09:00:16.520Z,103032.25
2023-02-27T09:02:43.005Z,103038.69
2023-02-27T09:05:09.550Z,103037.81
2023-02-27T09:07:36.136Z,103042.38
2023-02-27T09:10:02.607Z,103033.16
2023-02-27T09:12:28.974Z,103039.34
2023-02-27T09:14:55.330Z,103032.94
2023-02-27T09:17:21.718Z,103036.50
2023-02-27T09:19:48.050Z,103035.63
2023-02-27T09:22:14.408Z,103046.59
2023-02-27T09:24:40.750Z,103044.72
2023-02-27T09:27:07.140Z,103044.31
2023-02-27T09:29:33.542Z,103037.53
2023-02-27T09:32:00.100Z,103047.25
2023-02-27T09:34:26.554Z,103055.44
2023-02-27T09:36:52.993Z,103056.69
2023-02-27T09:39:19.350Z,103057.72
2023-02-27T09:41:57.894Z,103053.50
2023-02-27T09:44:46.355Z,103053.13
2023-02-27T09:47:19.311Z,103058.34
2023-02-27T09:49:59.990Z,103054.75
2023-02-27T09:52:28.805Z,103049.28
2023-02-27T09:54:55.430Z,103050.53
2023-02-27T09:57:37.602Z,103041.84
2023-02-27T10:00:42.925Z,103051.81
2023-02-27T10:03:44.897Z,103036.38
2023-02-27T10:06:25.220Z,103037.53
2023-02-27T10:09:16.157Z,103034.22
2023-02-27T10:11:54.666Z,103032.19
2023-02-27T10:14:34.785Z,103024.63
2023-02-27T10:17:06.422Z,103032.66
2023-02-27T10:19:37.012Z,103037.38
2023-02-27T10:22:08.226Z,103030.69
2023-02-27T10:24:42.914Z,103038.09
2023-02-27T10:27:16.146Z,103037.91
2023-02-27T10:29:42.869Z,103038.88
2023-02-27T10:32:32.783Z,103049.34
2023-02-27T10:35:09.575Z,103046.38
2023-02-27T10:37:41.117Z,103047.84
2023-02-27T10:40:12.714Z,103049.47
2023-02-27T10:42:41.595Z,103046.84
2023-02-27T10:45:15.124Z,103047.44
2023-02-27T10:47:42.589Z,103046.50
2023-02-27T10:50:20.952Z,103055.44
2023-02-27T10:52:59.414Z,103052.09
2023-02-27T10:55:29.975Z,103059.91
2023-02-27T10:57:58.457Z,103055.88
2023-02-27T11:00:49.388Z,103062.84
2023-02-27T11:03:21.257Z,103069.19
2023-02-27T11:06:26.019Z,103056.84
2023-02-27T11:09:11.023Z,103053.03
2023-02-27T11:11:38.117Z,103063.75
2023-02-27T11:14:19.575Z,103060.75
2023-02-27T11:16:50.493Z,103060.31
2023-02-27T11:19:32.066Z,103050.91
2023-02-27T11:22:07.491Z,103058.00
2023-02-27T11:24:34.969Z,103064.34
2023-02-27T11:27:05.288Z,103056.34
2023-02-27T11:29:34.328Z,103060.91
2023-02-27T11:32:04.872Z,103060.78
2023-02-27T11:34:38.670Z,103062.59
2023-02-27T11:37:26.369Z,103067.28
2023-02-27T11:40:01.799Z,103071.69
2023-02-27T11:42:34.623Z,103069.47
2023-02-27T11:45:08.604Z,103057.22
2023-02-27T11:47:38.734Z,103062.25
2023-02-27T11:50:42.536Z,103057.22
2023-02-27T11:53:28.008Z,103057.44
2023-02-27T11:55:59.376Z,103056.78
2023-02-27T11:58:30.681Z,103056.66
2023-02-27T12:01:04.048Z,103054.44
2023-02-27T12:03:46.635Z,103057.75
2023-02-27T12:06:19.292Z,103049.28
2023-02-27T12:08:52.886Z,103045.56
2023-02-27T12:11:40.649Z,103044.59
2023-02-27T12:14:40.252Z,103039.69
2023-02-27T12:17:29.455Z,103041.13
2023-02-27T12:20:14.784Z,103036.44
2023-02-27T12:22:46.966Z,103038.78
2023-02-27T12:25:33.491Z,103041.91
2023-02-27T12:28:15.431Z,103044.16
2023-02-27T12:30:52.589Z,103038.78
2023-02-27T12:33:38.382Z,103041.69
2023-02-27T12:36:08.525Z,103032.59
2023-02-27T12:38:38.086Z,103029.59
2023-02-27T12:41:23.332Z,103036.31
2023-02-27T12:44:12.094Z,103029.25
2023-02-27T12:47:04.637Z,103027.44
2023-02-27T12:49:51.568Z,103025.53
2023-02-27T12:52:37.006Z,103024.44
2023-02-27T12:55:13.829Z,103018.75
2023-02-27T12:58:03.194Z,103023.25
2023-02-27T13:00:41.488Z,103009.59
2023-02-27T13:03:17.480Z,103012.22
2023-02-27T13:05:51.977Z,103015.66
2023-02-27T13:08:38.163Z,103006.56
2023-02-27T13:11:13.495Z,103008.63
2023-02-27T13:13:49.060Z,103005.44
2023-02-27T13:16:20.111Z,103003.53
2023-02-27T13:19:14.275Z,103004.56
2023-02-27T13:21:53.969Z,103004.16
2023-02-27T13:24:31.157Z,102992.03
2023-02-27T13:27:00.580Z,102995.03
2023-02-27T13:29:46.306Z,103003.09
2023-02-27T13:32:43.058Z,103008.88
2023-02-27T13:35:23.425Z,103006.22
2023-02-27T13:38:05.298Z,103007.63
2023-02-27T13:40:36.313Z,103006.34
2023-02-27T13:43:24.444Z,103000.53
2023-02-27T13:46:18.412Z,103004.78
2023-02-27T13:48:46.858Z,103003.19
2023-02-27T13:51:34.697Z,102999.50
2023-02-27T13:54:13.192Z,103006.19
2023-02-27T13:56:43.314Z,102992.59
2023-02-27T13:59:19.376Z,102979.78
2023-02-27T14:01:54.570Z,102987.91
2023-02-27T14:04:22.203Z,102982.31
2023-02-27T14:06:49.247Z,102983.66
2023-02-27T14:09:20.272Z,102989.59
2023-02-27T14:11:59.902Z,102987.66
2023-02-27T14:14:45.715Z,103002.03
2023-02-27T14:17:33.856Z,102997.03
2023-02-27T14:20:01.147Z,103011.06
2023-02-27T14:22:28.876Z,103009.50
2023-02-27T14:25:03.685Z,103005.41
2023-02-27T14:27:36.558Z,103006.66
2023-02-27T14:30:07.725Z,103014.19
2023-02-27T14:32:37.119Z,103023.22
2023-02-27T14:35:05.923Z,103021.59
2023-02-27T14:37:33.023Z,103026.63
2023-02-27T14:40:03.196Z,103028.41
2023-02-27T14:42:48.544Z,103032.19
2023-02-27T14:45:24.301Z,103028.06
2023-02-27T14:47:52.569Z,103040.56
2023-02-27T14:50:36.624Z,103038.97
2023-02-27T14:53:05.342Z,103039.56
2023-02-27T14:55:34.222Z,103039.47
2023-02-27T14:58:15.507Z,103031.34
2023-02-27T15:00:50.402Z,103034.41
2023-02-27T15:03:26.116Z,103035.41
2023-02-27T15:05:57.515Z,103036.00
2023-02-27T15:08:28.521Z,103038.81
2023-02-27T15:10:56.244Z,103052.06
2023-02-27T15:13:33.129Z,103045.31
2023-02-27T15:16:28.861Z,103043.47
2023-02-27T15:18:58.966Z,103039.34
2023-02-27T15:21:29.461Z,103052.25
2023-02-27T15:23:58.637Z,103048.59
2023-02-27T15:26:27.044Z,103049.72
2023-02-27T15:28:54.070Z,103047.25
2023-02-27T15:31:26.921Z,103053.97
2023-02-27T15:33:55.051Z,103052.75
2023-02-27T15:36:35.554Z,103053.28
2023-02-27T15:39:20.307Z,103055.06
2023-02-27T15:41:50.341Z,103047.97
2023-02-27T15:44:19.727Z,103055.13
2023-02-27T15:46:47.543Z,103058.94
2023-02-27T15:49:16.890Z,103066.53
2023-02-27T15:51:43.572Z,103068.56
2023-02-27T15:54:10.553Z,103069.69
2023-02-27T15:56:38.878Z,103061.19
2023-02-27T15:59:05.651Z,103055.13
2023-02-27T16:01:33.119Z,103065.66
2023-02-27T16:04:02.366Z,103059.31
2023-02-27T16:06:35.137Z,103056.84
2023-02-27T16:09:22.008Z,103055.06
2023-02-27T16:11:49.449Z,103056.97
2023-02-27T16:14:44.678Z,103059.00
2023-02-27T16:17:30.521Z,103053.50
2023-02-27T16:20:01.326Z,103052.97
2023-02-27T16:22:30.322Z,103047.28
2023-02-27T16:25:10.892Z,103057.88
2023-02-27T16:27:38.906Z,103055.31
2023-02-27T16:30:11.352Z,103060.56
2023-02-27T16:32:42.151Z,103060.78
2023-02-27T16:35:20.327Z,103065.91
2023-02-27T16:37:47.993Z,103061.22
2023-02-27T16:40:18.444Z,103063.69
2023-02-27T16:42:46.053Z,103069.03
2023-02-27T16:45:21.443Z,103051.97
2023-02-27T16:47:49.260Z,103054.53
2023-02-27T16:50:24.318Z,103045.91
2023-02-27T16:52:50.632Z,103048.34
2023-02-27T16:55:17.109Z,103053.97
2023-02-27T16:57:43.538Z,103051.59
2023-02-27T17:00:15.220Z,103049.34
2023-02-27T17:02:42.862Z,103046.47
2023-02-27T17:05:09.916Z,103057.16
2023-02-27T17:07:36.932Z,103051.34
2023-02-27T17:10:03.964Z,103053.88
2023-02-27T17:12:30.310Z,103055.63
2023-02-27T17:14:56.807Z,103049.69
2023-02-27T17:17:23.165Z,103052.38
2023-02-27T17:19:49.628Z,103050.34
2023-02-27T17:22:15.953Z,103047.66
2023-02-27T17:24:42.419Z,103047.66
2023-02-27T17:27:09.338Z,103048.19
2023-02-27T17:29:38.456Z,103054.47
2023-02-27T17:32:04.988Z,103054.09
2023-02-27T17:34:31.403Z,103051.72
2023-02-27T17:36:57.738Z,103048.09
2023-02-27T17:39:24.159Z,103043.13
2023-02-27T17:41:52.797Z,103049.81
2023-02-27T17:44:19.294Z,103054.25
2023-02-27T17:46:45.640Z,103054.91
2023-02-27T17:49:12.062Z,103057.63
2023-02-27T17:51:38.396Z,103053.25
2023-02-27T17:54:05.894Z,103050.69
2023-02-27T17:56:32.812Z,103047.44
2023-02-27T17:58:59.931Z,103039.22
2023-02-27T18:01:26.631Z,103054.72
2023-02-27T18:03:54.778Z,103042.03
2023-02-27T18:06:22.410Z,103051.81
2023-02-27T18:08:48.967Z,103060.13
2023-02-27T18:11:18.449Z,103061.41
2023-02-27T18:13:45.180Z,103063.72
2023-02-27T18:16:11.931Z,103061.03
2023-02-27T18:18:40.589Z,103059.00
2023-02-27T18:21:10.329Z,103056.81
2023-02-27T18:23:37.541Z,103062.81
2023-02-27T18:26:04.692Z,103064.13
2023-02-27T18:28:31.077Z,103056.44
2023-02-27T18:30:57.586Z,103069.25
2023-02-27T18:33:24.650Z,103064.44
2023-02-27T18:35:51.687Z,103064.38
2023-02-27T18:38:18.108Z,103070.84
2023-02-27T18:40:44.586Z,103067.78
2023-02-27T18:43:11.603Z,103078.94
2023-02-27T18:45:38.420Z,103071.13
2023-02-27T18:48:04.967Z,103067.00
2023-02-27T18:50:31.452Z,103074.81
2023-02-27T18:52:59.089Z,103081.09
2023-02-27T18:55:25.840Z,103082.16
2023-02-27T18:57:52.221Z,103083.97
2023-02-27T19:00:19.554Z,103089.06
2023-02-27T19:02:45.964Z,103083.16
2023-02-27T19:05:14.456Z,103090.06
2023-02-27T19:07:41.034Z,103086.59
2023-02-27T19:10:08.480Z,103095.34
2023-02-27T19:12:34.848Z,103092.03
2023-02-27T19:15:01.253Z,103097.31
2023-02-27T19:17:27.985Z,103103.06
2023-02-27T19:19:54.439Z,103092.47
2023-02-27T19:22:21.130Z,103088.63
2023-02-27T19:24:47.818Z,103090.94
2023-02-27T19:27:14.149Z,103100.31
2023-02-27T19:29:40.590Z,103088.94
2023-02-27T19:32:08.292Z,103092.03
2023-02-27T19:34:34.691Z,103095.59
2023-02-27T19:37:01.052Z,103098.91
2023-02-27T19:39:27.661Z,103101.59
2023-02-27T19:41:53.985Z,103101.88
2023-02-27T19:44:20.715Z,103102.63
2023-02-27T19:46:51.292Z,103102.38
2023-02-27T19:49:18.029Z,103097.91
2023-02-27T19:51:44.548Z,103094.97
2023-02-27T19:54:15.513Z,103098.91
2023-02-27T19:56:42.420Z,103100.22
2023-02-27T19:59:10.948Z,103096.53
2023-02-27T20:01:38.881Z,103103.03
2023-02-27T20:04:07.799Z,103103.03
2023-02-27T20:06:44.648Z,103094.69
2023-02-27T20:09:16.983Z,103099.47
2023-02-27T20:11:44.522Z,103093.97
2023-02-27T20:14:13.857Z,103097.78
2023-02-27T20:16:41.019Z,103099.84
2023-02-27T20:19:10.407Z,103104.97
2023-02-27T20:21:36.911Z,103108.16
2023-02-27T20:24:03.406Z,103100.25
2023-02-27T20:26:34.867Z,103101.38
2023-02-27T20:29:07.179Z,103103.44
2023-02-27T20:31:35.653Z,103102.19
2023-02-27T20:34:05.923Z,103112.31
2023-02-27T20:36:34.608Z,103106.81
2023-02-27T20:39:01.320Z,103115.00
2023-02-27T20:41:29.772Z,103111.25
2023-02-27T20:43:56.872Z,103109.63
2023-02-27T20:46:28.597Z,103114.50
2023-02-27T20:48:56.599Z,103106.38
2023-02-27T20:51:24.895Z,103112.31
2023-02-27T20:53:54.432Z,103106.94
2023-02-27T20:56:23.194Z,103112.56
2023-02-27T20:58:49.962Z,103115.50
2023-02-27T21:01:17.380Z,103118.69
2023-02-27T21:03:45.108Z,103113.69
2023-02-27T21:06:15.311Z,103129.53
2023-02-27T21:08:44.958Z,103128.03
2023-02-27T21:11:20.447Z,103131.84
2023-02-27T21:13:47.198Z,103126.22
2023-02-27T21:16:16.243Z,103121.59
2023-02-27T21:18:43.396Z,103120.09
2023-02-27T21:21:18.834Z,103111.88
2023-02-27T21:23:45.581Z,103106.22
2023-02-27T21:26:26.562Z,103121.34
2023-02-27T21:28:57.770Z,103109.31
2023-02-27T21:31:26.666Z,103106.22
2023-02-27T21:33:54.098Z,103108.03
2023-02-27T21:36:47.736Z,103107.00
2023-02-27T21:39:17.146Z,103109.53
2023-02-27T21:41:44.472Z,103106.63
2023-02-27T21:44:14.174Z,103103.69
2023-02-27T21:46:40.964Z,103109.97
2023-02-27T21:49:07.674Z,103108.81
2023-02-27T21:51:40.382Z,103112.44
2023-02-27T21:54:09.633Z,103109.47
2023-02-27T21:56:36.150Z,103110.47
2023-02-27T21:59:02.561Z,103103.25
2023-02-27T22:01:30.370Z,103099.84
2023-02-27T22:03:57.307Z,103103.31
2023-02-27T22:06:26.164Z,103089.13
2023-02-27T22:08:56.723Z,103093.69
2023-02-27T22:11:24.594Z,103093.19
2023-02-27T22:13:50.926Z,103103.19
2023-02-27T22:16:19.672Z,103110.38
2023-02-27T22:18:46.629Z,103101.94
2023-02-27T22:21:18.990Z,103101.81
2023-02-27T22:23:45.892Z,103090.41
2023-02-27T22:26:18.041Z,103093.44
2023-02-27T22:28:44.407Z,103099.84
2023-02-27T22:31:18.488Z,103096.91
2023-02-27T22:33:46.897Z,103097.44
2023-02-27T22:36:16.080Z,103101.38
2023-02-27T22:38:42.954Z,103108.56
2023-02-27T22:41:12.894Z,103106.38
2023-02-27T22:43:39.774Z,103104.34
2023-02-27T22:46:10.479Z,103114.34
2023-02-27T22:48:37.552Z,103113.69
2023-02-27T22:51:07.317Z,103114.97
2023-02-27T22:53:41.084Z,103116.34
2023-02-27T22:56:10.850Z,103124.16
2023-02-27T22:58:38.937Z,103123.94
2023-02-27T23:01:09.741Z,103121.25
2023-02-27T23:03:37.275Z,103132.66
2023-02-27T23:06:05.129Z,103139.84
2023-02-27T23:08:31.479Z,103130.75
2023-02-27T23:10:58.238Z,103136.75
2023-02-27T23:13:24.633Z,103137.16
2023-02-27T23:15:51.120Z,103127.16
2023-02-27T23:18:17.548Z,103128.56
2023-02-27T23:20:43.979Z,103124.19
2023-02-27T23:23:10.318Z,103133.78
2023-02-27T23:25:38.010Z,103136.97
2023-02-27T23:28:05.848Z,103135.09
2023-02-27T23:30:33.160Z,103147.91
2023-02-27T23:32:59.968Z,103143.91
2023-02-27T23:35:27.536Z,103139.97
2023-02-27T23:37:58.980Z,103146.97
2023-02-27T23:40:27.192Z,103145.22
2023-02-27T23:42:54.033Z,103142.28
2023-02-27T23:45:23.457Z,103142.66
2023-02-27T23:47:57.834Z,103146.09
2023-02-27T23:50:27.513Z,103147.25
2023-02-27T23:52:55.827Z,103138.78
2023-02-27T23:55:22.633Z,103140.22
2023-02-27T23:57:53.818Z,103137.78
